sensor_id;sensor_type;location;lat;lon;timestamp;P1;durP1;ratioP1;P2;durP2;ratioP2
9771;SDS011;4925;52.588;13.370;2023-08-06T00:00:05;5.13;;;4.50;;
9771;SDS011;4925;52.588;13.370;2023-08-06T00:02:31;7.03;;;4.60;;
9771;SDS011;4925;52.588;13.370;2023-08-06T00:04:57;7.20;;;5.07;;
9771;SDS011;4925;52.588;13.370;2023-08-06T00:07:23;8.75;;;4.80;;
9771;SDS011;4925;52.588;13.370;2023-08-06T00:09:49;7.95;;;5.05;;
9771;SDS011;4925;52.588;13.370;2023-08-06T00:12:15;7.97;;;4.95;;
9771;SDS011;4925;52.588;13.370;2023-08-06T00:14:40;6.40;;;4.53;;
9771;SDS011;4925;52.588;13.370;2023-08-06T00:17:06;5.85;;;5.32;;
9771;SDS011;4925;52.588;13.370;2023-08-06T00:19:32;6.68;;;4.95;;
9771;SDS011;4925;52.588;13.370;2023-08-06T00:21:58;6.90;;;4.95;;
9771;SDS011;4925;52.588;13.370;2023-08-06T00:24:23;5.30;;;4.80;;
9771;SDS011;4925;52.588;13.370;2023-08-06T00:26:49;8.02;;;5.15;;
9771;SDS011;4925;52.588;13.370;2023-08-06T00:29:15;7.50;;;5.38;;
9771;SDS011;4925;52.588;13.370;2023-08-06T00:31:40;7.22;;;5.00;;
9771;SDS011;4925;52.588;13.370;2023-08-06T00:34:06;6.00;;;4.97;;
9771;SDS011;4925;52.588;13.370;2023-08-06T00:36:31;6.53;;;5.10;;
9771;SDS011;4925;52.588;13.370;2023-08-06T00:38:57;5.45;;;4.95;;
9771;SDS011;4925;52.588;13.370;2023-08-06T00:41:23;6.32;;;4.50;;
9771;SDS011;4925;52.588;13.370;2023-08-06T00:43:48;6.15;;;4.75;;
9771;SDS011;4925;52.588;13.370;2023-08-06T00:46:14;5.60;;;5.00;;
9771;SDS011;4925;52.588;13.370;2023-08-06T00:48:40;5.57;;;5.03;;
9771;SDS011;4925;52.588;13.370;2023-08-06T00:51:06;7.05;;;4.90;;
9771;SDS011;4925;52.588;13.370;2023-08-06T00:53:34;5.72;;;5.15;;
9771;SDS011;4925;52.588;13.370;2023-08-06T00:56:00;4.95;;;4.55;;
9771;SDS011;4925;52.588;13.370;2023-08-06T00:58:26;5.45;;;4.90;;
9771;SDS011;4925;52.588;13.370;2023-08-06T01:00:52;5.38;;;4.90;;
9771;SDS011;4925;52.588;13.370;2023-08-06T01:03:17;5.95;;;4.95;;
9771;SDS011;4925;52.588;13.370;2023-08-06T01:05:43;6.82;;;4.85;;
9771;SDS011;4925;52.588;13.370;2023-08-06T01:08:12;5.30;;;4.90;;
9771;SDS011;4925;52.588;13.370;2023-08-06T01:13:47;6.63;;;5.28;;
9771;SDS011;4925;52.588;13.370;2023-08-06T01:16:17;5.18;;;4.68;;
9771;SDS011;4925;52.588;13.370;2023-08-06T01:18:43;5.90;;;5.43;;
9771;SDS011;4925;52.588;13.370;2023-08-06T01:21:14;5.22;;;4.82;;
9771;SDS011;4925;52.588;13.370;2023-08-06T01:23:43;6.60;;;5.15;;
9771;SDS011;4925;52.588;13.370;2023-08-06T01:26:27;5.30;;;4.90;;
9771;SDS011;4925;52.588;13.370;2023-08-06T01:31:30;5.13;;;4.72;;
9771;SDS011;4925;52.588;13.370;2023-08-06T01:33:58;6.65;;;4.82;;
9771;SDS011;4925;52.588;13.370;2023-08-06T01:36:25;5.85;;;5.28;;
9771;SDS011;4925;52.588;13.370;2023-08-06T01:38:52;5.65;;;5.15;;
9771;SDS011;4925;52.588;13.370;2023-08-06T01:41:18;7.00;;;5.10;;
9771;SDS011;4925;52.588;13.370;2023-08-06T01:43:44;5.55;;;5.03;;
9771;SDS011;4925;52.588;13.370;2023-08-06T01:46:10;5.15;;;4.65;;
9771;SDS011;4925;52.588;13.370;2023-08-06T01:48:35;5.43;;;4.93;;
9771;SDS011;4925;52.588;13.370;2023-08-06T01:51:03;5.40;;;4.80;;
9771;SDS011;4925;52.588;13.370;2023-08-06T01:53:30;5.80;;;5.30;;
9771;SDS011;4925;52.588;13.370;2023-08-06T01:55:56;4.63;;;4.30;;
9771;SDS011;4925;52.588;13.370;2023-08-06T01:58:22;5.63;;;5.13;;
9771;SDS011;4925;52.588;13.370;2023-08-06T02:00:48;4.82;;;4.43;;
9771;SDS011;4925;52.588;13.370;2023-08-06T02:03:14;5.70;;;5.20;;
9771;SDS011;4925;52.588;13.370;2023-08-06T02:05:39;8.07;;;5.53;;
9771;SDS011;4925;52.588;13.370;2023-08-06T02:08:05;4.65;;;4.22;;
9771;SDS011;4925;52.588;13.370;2023-08-06T02:10:31;5.10;;;4.70;;
9771;SDS011;4925;52.588;13.370;2023-08-06T02:12:57;5.40;;;4.90;;
9771;SDS011;4925;52.588;13.370;2023-08-06T02:15:22;4.90;;;4.50;;
9771;SDS011;4925;52.588;13.370;2023-08-06T02:17:48;5.43;;;5.03;;
9771;SDS011;4925;52.588;13.370;2023-08-06T02:20:14;4.80;;;4.50;;
9771;SDS011;4925;52.588;13.370;2023-08-06T02:22:39;5.80;;;5.28;;
9771;SDS011;4925;52.588;13.370;2023-08-06T02:25:05;4.90;;;4.60;;
9771;SDS011;4925;52.588;13.370;2023-08-06T02:27:31;4.93;;;4.43;;
9771;SDS011;4925;52.588;13.370;2023-08-06T02:29:56;5.18;;;4.68;;
9771;SDS011;4925;52.588;13.370;2023-08-06T02:32:22;5.07;;;4.63;;
9771;SDS011;4925;52.588;13.370;2023-08-06T02:34:49;5.00;;;4.60;;
9771;SDS011;4925;52.588;13.370;2023-08-06T02:37:15;5.88;;;4.80;;
9771;SDS011;4925;52.588;13.370;2023-08-06T02:39:41;5.13;;;4.72;;
9771;SDS011;4925;52.588;13.370;2023-08-06T02:42:07;5.65;;;5.07;;
9771;SDS011;4925;52.588;13.370;2023-08-06T02:44:32;4.75;;;4.45;;
9771;SDS011;4925;52.588;13.370;2023-08-06T02:46:59;5.30;;;4.88;;
9771;SDS011;4925;52.588;13.370;2023-08-06T02:49:25;6.32;;;5.72;;
9771;SDS011;4925;52.588;13.370;2023-08-06T02:51:50;6.20;;;5.60;;
9771;SDS011;4925;52.588;13.370;2023-08-06T02:54:17;5.38;;;4.97;;
9771;SDS011;4925;52.588;13.370;2023-08-06T02:56:43;7.88;;;5.10;;
9771;SDS011;4925;52.588;13.370;2023-08-06T02:59:12;5.30;;;4.90;;
9771;SDS011;4925;52.588;13.370;2023-08-06T03:01:38;5.82;;;5.32;;
9771;SDS011;4925;52.588;13.370;2023-08-06T03:04:04;6.03;;;4.93;;
9771;SDS011;4925;52.588;13.370;2023-08-06T03:06:30;6.65;;;5.25;;
9771;SDS011;4925;52.588;13.370;2023-08-06T03:08:56;5.68;;;4.88;;
9771;SDS011;4925;52.588;13.370;2023-08-06T03:11:22;6.25;;;5.45;;
9771;SDS011;4925;52.588;13.370;2023-08-06T03:13:48;6.10;;;5.13;;
9771;SDS011;4925;52.588;13.370;2023-08-06T03:16:14;5.45;;;4.95;;
9771;SDS011;4925;52.588;13.370;2023-08-06T03:18:39;5.13;;;4.75;;
9771;SDS011;4925;52.588;13.370;2023-08-06T03:21:05;5.45;;;5.00;;
9771;SDS011;4925;52.588;13.370;2023-08-06T03:23:31;5.68;;;5.20;;
9771;SDS011;4925;52.588;13.370;2023-08-06T03:26:03;5.65;;;5.15;;
9771;SDS011;4925;52.588;13.370;2023-08-06T03:28:29;5.65;;;5.22;;
9771;SDS011;4925;52.588;13.370;2023-08-06T03:31:01;6.40;;;5.57;;
9771;SDS011;4925;52.588;13.370;2023-08-06T03:33:28;6.20;;;5.60;;
9771;SDS011;4925;52.588;13.370;2023-08-06T03:35:54;5.20;;;4.80;;
9771;SDS011;4925;52.588;13.370;2023-08-06T03:38:19;5.32;;;4.88;;
9771;SDS011;4925;52.588;13.370;2023-08-06T03:40:48;6.45;;;5.93;;
9771;SDS011;4925;52.588;13.370;2023-08-06T03:43:14;6.13;;;5.50;;
9771;SDS011;4925;52.588;13.370;2023-08-06T03:45:40;5.40;;;5.00;;
9771;SDS011;4925;52.588;13.370;2023-08-06T03:48:06;5.75;;;5.20;;
9771;SDS011;4925;52.588;13.370;2023-08-06T03:50:32;5.93;;;5.45;;
9771;SDS011;4925;52.588;13.370;2023-08-06T03:52:58;6.38;;;5.78;;
9771;SDS011;4925;52.588;13.370;2023-08-06T03:55:23;5.53;;;5.10;;
9771;SDS011;4925;52.588;13.370;2023-08-06T03:57:49;6.07;;;5.47;;
9771;SDS011;4925;52.588;13.370;2023-08-06T04:00:15;7.35;;;6.13;;
9771;SDS011;4925;52.588;13.370;2023-08-06T04:02:40;5.75;;;4.63;;
9771;SDS011;4925;52.588;13.370;2023-08-06T04:05:06;5.72;;;5.20;;
9771;SDS011;4925;52.588;13.370;2023-08-06T04:07:32;5.40;;;4.93;;
9771;SDS011;4925;52.588;13.370;2023-08-06T04:09:59;5.20;;;4.70;;
9771;SDS011;4925;52.588;13.370;2023-08-06T04:12:26;5.80;;;5.30;;
9771;SDS011;4925;52.588;13.370;2023-08-06T04:14:52;5.55;;;5.15;;
9771;SDS011;4925;52.588;13.370;2023-08-06T04:17:18;5.05;;;4.72;;
9771;SDS011;4925;52.588;13.370;2023-08-06T04:19:54;6.05;;;5.55;;
9771;SDS011;4925;52.588;13.370;2023-08-06T04:22:25;6.00;;;5.45;;
9771;SDS011;4925;52.588;13.370;2023-08-06T04:24:51;5.85;;;5.28;;
9771;SDS011;4925;52.588;13.370;2023-08-06T04:27:17;5.50;;;5.00;;
9771;SDS011;4925;52.588;13.370;2023-08-06T04:29:44;5.40;;;5.00;;
9771;SDS011;4925;52.588;13.370;2023-08-06T04:32:10;4.80;;;4.50;;
9771;SDS011;4925;52.588;13.370;2023-08-06T04:34:36;6.95;;;5.00;;
9771;SDS011;4925;52.588;13.370;2023-08-06T04:37:02;4.97;;;4.60;;
9771;SDS011;4925;52.588;13.370;2023-08-06T04:39:28;4.88;;;4.47;;
9771;SDS011;4925;52.588;13.370;2023-08-06T04:41:55;5.50;;;5.00;;
9771;SDS011;4925;52.588;13.370;2023-08-06T04:44:22;4.97;;;4.57;;
9771;SDS011;4925;52.588;13.370;2023-08-06T04:46:48;5.13;;;4.72;;
9771;SDS011;4925;52.588;13.370;2023-08-06T04:49:14;5.50;;;5.00;;
9771;SDS011;4925;52.588;13.370;2023-08-06T04:51:39;5.03;;;4.63;;
9771;SDS011;4925;52.588;13.370;2023-08-06T04:54:05;5.85;;;5.28;;
9771;SDS011;4925;52.588;13.370;2023-08-06T04:56:31;4.72;;;4.38;;
9771;SDS011;4925;52.588;13.370;2023-08-06T04:58:57;5.13;;;4.72;;
9771;SDS011;4925;52.588;13.370;2023-08-06T05:01:23;5.50;;;5.10;;
9771;SDS011;4925;52.588;13.370;2023-08-06T05:03:49;5.45;;;4.95;;
9771;SDS011;4925;52.588;13.370;2023-08-06T05:06:15;5.47;;;5.03;;
9771;SDS011;4925;52.588;13.370;2023-08-06T05:08:40;5.20;;;4.80;;
9771;SDS011;4925;52.588;13.370;2023-08-06T05:11:06;5.15;;;4.65;;
9771;SDS011;4925;52.588;13.370;2023-08-06T05:13:32;5.28;;;4.82;;
9771;SDS011;4925;52.588;13.370;2023-08-06T05:15:57;5.22;;;4.57;;
9771;SDS011;4925;52.588;13.370;2023-08-06T05:18:23;5.22;;;4.82;;
9771;SDS011;4925;52.588;13.370;2023-08-06T05:20:49;5.57;;;5.07;;
9771;SDS011;4925;52.588;13.370;2023-08-06T05:23:15;4.88;;;4.47;;
9771;SDS011;4925;52.588;13.370;2023-08-06T05:25:41;4.68;;;4.38;;
9771;SDS011;4925;52.588;13.370;2023-08-06T05:28:07;7.30;;;5.05;;
9771;SDS011;4925;52.588;13.370;2023-08-06T05:30:33;5.20;;;4.72;;
9771;SDS011;4925;52.588;13.370;2023-08-06T05:32:58;4.32;;;4.03;;
9771;SDS011;4925;52.588;13.370;2023-08-06T05:35:24;5.25;;;4.80;;
9771;SDS011;4925;52.588;13.370;2023-08-06T05:37:50;5.20;;;4.80;;
9771;SDS011;4925;52.588;13.370;2023-08-06T05:40:15;6.15;;;4.90;;
9771;SDS011;4925;52.588;13.370;2023-08-06T05:42:41;5.15;;;4.75;;
9771;SDS011;4925;52.588;13.370;2023-08-06T05:45:07;5.25;;;4.75;;
9771;SDS011;4925;52.588;13.370;2023-08-06T05:47:33;5.85;;;5.32;;
9771;SDS011;4925;52.588;13.370;2023-08-06T05:49:59;5.45;;;5.05;;
9771;SDS011;4925;52.588;13.370;2023-08-06T05:52:25;5.25;;;4.90;;
9771;SDS011;4925;52.588;13.370;2023-08-06T05:54:50;5.10;;;4.70;;
9771;SDS011;4925;52.588;13.370;2023-08-06T05:57:16;5.60;;;5.13;;
9771;SDS011;4925;52.588;13.370;2023-08-06T05:59:42;5.30;;;4.90;;
9771;SDS011;4925;52.588;13.370;2023-08-06T06:02:08;7.00;;;4.70;;
9771;SDS011;4925;52.588;13.370;2023-08-06T06:04:34;6.20;;;4.80;;
9771;SDS011;4925;52.588;13.370;2023-08-06T06:06:59;5.40;;;4.90;;
9771;SDS011;4925;52.588;13.370;2023-08-06T06:09:25;5.40;;;5.00;;
9771;SDS011;4925;52.588;13.370;2023-08-06T06:11:51;6.95;;;6.35;;
9771;SDS011;4925;52.588;13.370;2023-08-06T06:14:17;5.82;;;5.32;;
9771;SDS011;4925;52.588;13.370;2023-08-06T06:16:43;5.40;;;5.00;;
9771;SDS011;4925;52.588;13.370;2023-08-06T06:19:09;5.30;;;4.82;;
9771;SDS011;4925;52.588;13.370;2023-08-06T06:21:35;6.70;;;5.03;;
9771;SDS011;4925;52.588;13.370;2023-08-06T06:24:01;6.10;;;5.60;;
9771;SDS011;4925;52.588;13.370;2023-08-06T06:26:27;6.45;;;5.85;;
9771;SDS011;4925;52.588;13.370;2023-08-06T06:28:53;6.15;;;5.60;;
9771;SDS011;4925;52.588;13.370;2023-08-06T06:31:19;6.18;;;5.63;;
9771;SDS011;4925;52.588;13.370;2023-08-06T06:33:44;5.50;;;5.00;;
9771;SDS011;4925;52.588;13.370;2023-08-06T06:36:10;5.00;;;4.60;;
9771;SDS011;4925;52.588;13.370;2023-08-06T06:38:36;6.03;;;5.40;;
9771;SDS011;4925;52.588;13.370;2023-08-06T06:41:02;5.50;;;5.00;;
9771;SDS011;4925;52.588;13.370;2023-08-06T06:43:28;5.78;;;5.15;;
9771;SDS011;4925;52.588;13.370;2023-08-06T06:45:57;6.18;;;5.57;;
9771;SDS011;4925;52.588;13.370;2023-08-06T06:48:28;5.28;;;4.78;;
9771;SDS011;4925;52.588;13.370;2023-08-06T06:50:54;6.05;;;5.55;;
9771;SDS011;4925;52.588;13.370;2023-08-06T06:53:20;4.95;;;4.65;;
9771;SDS011;4925;52.588;13.370;2023-08-06T06:55:52;4.95;;;4.55;;
9771;SDS011;4925;52.588;13.370;2023-08-06T06:58:28;6.32;;;5.53;;
9771;SDS011;4925;52.588;13.370;2023-08-06T07:00:53;5.47;;;4.97;;
9771;SDS011;4925;52.588;13.370;2023-08-06T07:03:22;5.82;;;5.32;;
9771;SDS011;4925;52.588;13.370;2023-08-06T07:05:48;5.70;;;5.20;;
9771;SDS011;4925;52.588;13.370;2023-08-06T07:08:14;5.70;;;5.20;;
9771;SDS011;4925;52.588;13.370;2023-08-06T07:10:44;5.28;;;4.88;;
9771;SDS011;4925;52.588;13.370;2023-08-06T07:13:10;5.13;;;4.72;;
9771;SDS011;4925;52.588;13.370;2023-08-06T07:15:36;5.25;;;4.95;;
9771;SDS011;4925;52.588;13.370;2023-08-06T07:18:02;4.93;;;4.53;;
9771;SDS011;4925;52.588;13.370;2023-08-06T07:20:27;5.18;;;4.78;;
9771;SDS011;4925;52.588;13.370;2023-08-06T07:22:58;4.80;;;4.47;;
9771;SDS011;4925;52.588;13.370;2023-08-06T07:25:24;5.35;;;4.95;;
9771;SDS011;4925;52.588;13.370;2023-08-06T07:27:50;5.22;;;4.82;;
9771;SDS011;4925;52.588;13.370;2023-08-06T07:30:15;6.53;;;5.93;;
9771;SDS011;4925;52.588;13.370;2023-08-06T07:32:42;6.18;;;5.65;;
9771;SDS011;4925;52.588;13.370;2023-08-06T07:35:07;5.80;;;5.40;;
9771;SDS011;4925;52.588;13.370;2023-08-06T07:37:37;5.65;;;5.13;;
9771;SDS011;4925;52.588;13.370;2023-08-06T07:40:06;6.18;;;4.75;;
9771;SDS011;4925;52.588;13.370;2023-08-06T07:42:32;4.78;;;4.38;;
9771;SDS011;4925;52.588;13.370;2023-08-06T07:44:58;5.28;;;4.68;;
9771;SDS011;4925;52.588;13.370;2023-08-06T07:47:24;6.20;;;5.70;;
9771;SDS011;4925;52.588;13.370;2023-08-06T07:49:49;6.15;;;5.55;;
9771;SDS011;4925;52.588;13.370;2023-08-06T07:52:15;5.78;;;5.38;;
9771;SDS011;4925;52.588;13.370;2023-08-06T07:54:41;6.00;;;5.50;;
9771;SDS011;4925;52.588;13.370;2023-08-06T07:57:07;7.47;;;5.97;;
9771;SDS011;4925;52.588;13.370;2023-08-06T07:59:33;5.75;;;5.25;;
9771;SDS011;4925;52.588;13.370;2023-08-06T08:01:58;6.07;;;5.57;;
9771;SDS011;4925;52.588;13.370;2023-08-06T08:04:24;6.05;;;5.65;;
9771;SDS011;4925;52.588;13.370;2023-08-06T08:06:50;6.75;;;6.15;;
9771;SDS011;4925;52.588;13.370;2023-08-06T08:09:16;6.68;;;6.18;;
9771;SDS011;4925;52.588;13.370;2023-08-06T08:11:42;6.60;;;6.05;;
9771;SDS011;4925;52.588;13.370;2023-08-06T08:14:08;6.43;;;5.82;;
9771;SDS011;4925;52.588;13.370;2023-08-06T08:16:33;6.30;;;5.80;;
9771;SDS011;4925;52.588;13.370;2023-08-06T08:18:59;6.35;;;5.55;;
9771;SDS011;4925;52.588;13.370;2023-08-06T08:21:25;6.70;;;6.20;;
9771;SDS011;4925;52.588;13.370;2023-08-06T08:23:50;7.10;;;6.47;;
9771;SDS011;4925;52.588;13.370;2023-08-06T08:26:16;14.85;;;13.43;;
9771;SDS011;4925;52.588;13.370;2023-08-06T08:28:42;7.68;;;6.85;;
9771;SDS011;4925;52.588;13.370;2023-08-06T08:31:08;6.97;;;6.43;;
9771;SDS011;4925;52.588;13.370;2023-08-06T08:33:35;7.85;;;7.07;;
9771;SDS011;4925;52.588;13.370;2023-08-06T08:36:00;7.22;;;6.65;;
9771;SDS011;4925;52.588;13.370;2023-08-06T08:38:26;6.97;;;6.40;;
9771;SDS011;4925;52.588;13.370;2023-08-06T08:40:52;7.72;;;7.07;;
9771;SDS011;4925;52.588;13.370;2023-08-06T08:43:23;7.40;;;6.90;;
9771;SDS011;4925;52.588;13.370;2023-08-06T08:45:49;7.93;;;7.32;;
9771;SDS011;4925;52.588;13.370;2023-08-06T08:48:17;7.38;;;6.68;;
9771;SDS011;4925;52.588;13.370;2023-08-06T08:50:45;6.95;;;6.45;;
9771;SDS011;4925;52.588;13.370;2023-08-06T08:53:15;8.50;;;7.70;;
9771;SDS011;4925;52.588;13.370;2023-08-06T08:55:46;8.18;;;7.57;;
9771;SDS011;4925;52.588;13.370;2023-08-06T08:58:14;7.75;;;7.05;;
9771;SDS011;4925;52.588;13.370;2023-08-06T09:00:43;8.02;;;7.25;;
9771;SDS011;4925;52.588;13.370;2023-08-06T09:03:11;7.38;;;6.65;;
9771;SDS011;4925;52.588;13.370;2023-08-06T09:05:37;7.93;;;7.28;;
9771;SDS011;4925;52.588;13.370;2023-08-06T09:08:10;8.75;;;7.97;;
9771;SDS011;4925;52.588;13.370;2023-08-06T09:10:40;8.43;;;7.75;;
9771;SDS011;4925;52.588;13.370;2023-08-06T09:13:08;9.38;;;8.52;;
9771;SDS011;4925;52.588;13.370;2023-08-06T09:15:33;8.65;;;7.88;;
9771;SDS011;4925;52.588;13.370;2023-08-06T09:18:00;7.32;;;6.72;;
9771;SDS011;4925;52.588;13.370;2023-08-06T09:20:33;7.53;;;6.95;;
9771;SDS011;4925;52.588;13.370;2023-08-06T09:23:06;7.65;;;7.05;;
9771;SDS011;4925;52.588;13.370;2023-08-06T09:25:37;10.38;;;9.48;;
9771;SDS011;4925;52.588;13.370;2023-08-06T09:28:07;39.10;;;34.05;;
9771;SDS011;4925;52.588;13.370;2023-08-06T09:30:33;30.10;;;26.98;;
9771;SDS011;4925;52.588;13.370;2023-08-06T09:33:01;9.75;;;8.85;;
9771;SDS011;4925;52.588;13.370;2023-08-06T09:35:30;8.38;;;7.70;;
9771;SDS011;4925;52.588;13.370;2023-08-06T09:38:06;8.88;;;8.00;;
9771;SDS011;4925;52.588;13.370;2023-08-06T09:40:33;9.93;;;8.10;;
9771;SDS011;4925;52.588;13.370;2023-08-06T09:42:59;8.45;;;7.65;;
9771;SDS011;4925;52.588;13.370;2023-08-06T09:45:30;7.88;;;7.18;;
9771;SDS011;4925;52.588;13.370;2023-08-06T09:48:03;7.55;;;7.05;;
9771;SDS011;4925;52.588;13.370;2023-08-06T09:50:37;7.70;;;6.95;;
9771;SDS011;4925;52.588;13.370;2023-08-06T09:53:04;7.80;;;7.20;;
9771;SDS011;4925;52.588;13.370;2023-08-06T09:55:31;6.95;;;6.35;;
9771;SDS011;4925;52.588;13.370;2023-08-06T09:57:58;6.28;;;5.78;;
9771;SDS011;4925;52.588;13.370;2023-08-06T10:00:24;6.15;;;5.75;;
9771;SDS011;4925;52.588;13.370;2023-08-06T10:02:51;5.40;;;5.00;;
9771;SDS011;4925;52.588;13.370;2023-08-06T10:05:21;5.38;;;5.00;;
9771;SDS011;4925;52.588;13.370;2023-08-06T10:07:47;5.78;;;5.38;;
9771;SDS011;4925;52.588;13.370;2023-08-06T10:10:15;5.63;;;5.22;;
9771;SDS011;4925;52.588;13.370;2023-08-06T10:12:48;4.10;;;3.80;;
9771;SDS011;4925;52.588;13.370;2023-08-06T10:15:17;3.15;;;2.95;;
9771;SDS011;4925;52.588;13.370;2023-08-06T10:17:47;3.40;;;3.20;;
9771;SDS011;4925;52.588;13.370;2023-08-06T10:20:16;3.45;;;3.13;;
9771;SDS011;4925;52.588;13.370;2023-08-06T10:22:42;3.95;;;3.75;;
9771;SDS011;4925;52.588;13.370;2023-08-06T10:25:15;4.18;;;3.88;;
9771;SDS011;4925;52.588;13.370;2023-08-06T10:32:59;3.80;;;3.60;;
9771;SDS011;4925;52.588;13.370;2023-08-06T10:38:14;5.00;;;4.60;;
9771;SDS011;4925;52.588;13.370;2023-08-06T10:41:00;5.03;;;4.53;;
9771;SDS011;4925;52.588;13.370;2023-08-06T10:46:11;4.97;;;4.57;;
9771;SDS011;4925;52.588;13.370;2023-08-06T10:48:46;4.38;;;4.07;;
9771;SDS011;4925;52.588;13.370;2023-08-06T10:51:12;4.68;;;4.25;;
9771;SDS011;4925;52.588;13.370;2023-08-06T10:53:43;4.80;;;4.50;;
9771;SDS011;4925;52.588;13.370;2023-08-06T10:56:14;4.80;;;4.40;;
9771;SDS011;4925;52.588;13.370;2023-08-06T10:58:40;5.40;;;4.97;;
9771;SDS011;4925;52.588;13.370;2023-08-06T11:01:07;4.82;;;4.43;;
9771;SDS011;4925;52.588;13.370;2023-08-06T11:03:33;4.65;;;4.35;;
9771;SDS011;4925;52.588;13.370;2023-08-06T11:05:59;5.18;;;4.78;;
9771;SDS011;4925;52.588;13.370;2023-08-06T11:08:26;4.68;;;4.38;;
9771;SDS011;4925;52.588;13.370;2023-08-06T11:10:52;4.90;;;4.60;;
9771;SDS011;4925;52.588;13.370;2023-08-06T11:13:18;5.22;;;4.72;;
9771;SDS011;4925;52.588;13.370;2023-08-06T11:15:45;5.45;;;5.05;;
9771;SDS011;4925;52.588;13.370;2023-08-06T11:18:11;4.35;;;4.13;;
9771;SDS011;4925;52.588;13.370;2023-08-06T11:20:36;5.63;;;5.22;;
9771;SDS011;4925;52.588;13.370;2023-08-06T11:23:03;5.93;;;5.50;;
9771;SDS011;4925;52.588;13.370;2023-08-06T11:28:51;5.40;;;5.00;;
9771;SDS011;4925;52.588;13.370;2023-08-06T11:31:21;5.43;;;4.93;;
9771;SDS011;4925;52.588;13.370;2023-08-06T11:33:47;6.28;;;5.78;;
9771;SDS011;4925;52.588;13.370;2023-08-06T11:36:14;5.95;;;5.45;;
9771;SDS011;4925;52.588;13.370;2023-08-06T11:38:40;6.60;;;6.10;;
9771;SDS011;4925;52.588;13.370;2023-08-06T11:41:06;5.72;;;5.32;;
9771;SDS011;4925;52.588;13.370;2023-08-06T11:43:32;5.22;;;4.82;;
9771;SDS011;4925;52.588;13.370;2023-08-06T11:45:58;5.97;;;5.43;;
9771;SDS011;4925;52.588;13.370;2023-08-06T11:48:25;6.70;;;6.20;;
9771;SDS011;4925;52.588;13.370;2023-08-06T11:50:53;6.22;;;5.72;;
9771;SDS011;4925;52.588;13.370;2023-08-06T11:53:20;6.07;;;5.68;;
9771;SDS011;4925;52.588;13.370;2023-08-06T11:55:45;6.13;;;5.65;;
9771;SDS011;4925;52.588;13.370;2023-08-06T11:58:11;5.57;;;5.15;;
9771;SDS011;4925;52.588;13.370;2023-08-06T12:00:37;6.00;;;5.50;;
9771;SDS011;4925;52.588;13.370;2023-08-06T12:03:04;13.85;;;12.40;;
9771;SDS011;4925;52.588;13.370;2023-08-06T12:05:30;33.92;;;28.98;;
9771;SDS011;4925;52.588;13.370;2023-08-06T12:07:58;19.05;;;17.05;;
9771;SDS011;4925;52.588;13.370;2023-08-06T12:10:27;7.18;;;6.47;;
9771;SDS011;4925;52.588;13.370;2023-08-06T12:12:54;6.63;;;5.95;;
9771;SDS011;4925;52.588;13.370;2023-08-06T12:15:20;7.35;;;6.70;;
9771;SDS011;4925;52.588;13.370;2023-08-06T12:17:46;5.45;;;5.13;;
9771;SDS011;4925;52.588;13.370;2023-08-06T12:20:12;6.00;;;5.50;;
9771;SDS011;4925;52.588;13.370;2023-08-06T12:22:38;6.50;;;5.85;;
9771;SDS011;4925;52.588;13.370;2023-08-06T12:25:08;6.45;;;5.90;;
9771;SDS011;4925;52.588;13.370;2023-08-06T12:27:46;6.75;;;5.78;;
9771;SDS011;4925;52.588;13.370;2023-08-06T12:30:12;7.28;;;6.43;;
9771;SDS011;4925;52.588;13.370;2023-08-06T12:32:38;7.47;;;6.75;;
9771;SDS011;4925;52.588;13.370;2023-08-06T12:35:04;6.55;;;6.07;;
9771;SDS011;4925;52.588;13.370;2023-08-06T12:37:32;6.68;;;6.18;;
9771;SDS011;4925;52.588;13.370;2023-08-06T12:39:57;6.82;;;6.15;;
9771;SDS011;4925;52.588;13.370;2023-08-06T12:42:23;6.55;;;6.05;;
9771;SDS011;4925;52.588;13.370;2023-08-06T12:44:49;6.45;;;5.97;;
9771;SDS011;4925;52.588;13.370;2023-08-06T12:47:15;6.90;;;6.30;;
9771;SDS011;4925;52.588;13.370;2023-08-06T12:49:41;6.35;;;5.85;;
9771;SDS011;4925;52.588;13.370;2023-08-06T12:52:07;6.18;;;5.78;;
9771;SDS011;4925;52.588;13.370;2023-08-06T12:54:34;6.32;;;5.72;;
9771;SDS011;4925;52.588;13.370;2023-08-06T12:57:02;6.80;;;6.20;;
9771;SDS011;4925;52.588;13.370;2023-08-06T12:59:28;6.95;;;6.25;;
9771;SDS011;4925;52.588;13.370;2023-08-06T13:01:54;5.75;;;5.22;;
9771;SDS011;4925;52.588;13.370;2023-08-06T13:04:19;6.35;;;5.85;;
9771;SDS011;4925;52.588;13.370;2023-08-06T13:06:45;7.00;;;5.57;;
9771;SDS011;4925;52.588;13.370;2023-08-06T13:09:11;7.28;;;6.68;;
9771;SDS011;4925;52.588;13.370;2023-08-06T13:11:38;7.15;;;6.55;;
9771;SDS011;4925;52.588;13.370;2023-08-06T13:14:05;6.45;;;5.95;;
9771;SDS011;4925;52.588;13.370;2023-08-06T13:16:35;6.32;;;5.75;;
9771;SDS011;4925;52.588;13.370;2023-08-06T13:19:02;5.55;;;5.15;;
9771;SDS011;4925;52.588;13.370;2023-08-06T13:21:35;6.40;;;5.75;;
9771;SDS011;4925;52.588;13.370;2023-08-06T13:24:21;5.57;;;5.07;;
9771;SDS011;4925;52.588;13.370;2023-08-06T13:26:47;5.72;;;5.20;;
9771;SDS011;4925;52.588;13.370;2023-08-06T13:29:12;5.28;;;4.88;;
9771;SDS011;4925;52.588;13.370;2023-08-06T13:31:38;5.68;;;5.18;;
9771;SDS011;4925;52.588;13.370;2023-08-06T13:34:04;5.55;;;5.05;;
9771;SDS011;4925;52.588;13.370;2023-08-06T13:36:29;6.20;;;5.50;;
9771;SDS011;4925;52.588;13.370;2023-08-06T13:38:56;5.70;;;5.07;;
9771;SDS011;4925;52.588;13.370;2023-08-06T13:41:22;5.40;;;4.90;;
9771;SDS011;4925;52.588;13.370;2023-08-06T13:43:48;7.97;;;5.70;;
9771;SDS011;4925;52.588;13.370;2023-08-06T13:46:13;6.47;;;5.88;;
9771;SDS011;4925;52.588;13.370;2023-08-06T13:48:43;5.40;;;4.90;;
9771;SDS011;4925;52.588;13.370;2023-08-06T13:51:09;4.78;;;4.38;;
9771;SDS011;4925;52.588;13.370;2023-08-06T13:53:36;4.45;;;4.05;;
9771;SDS011;4925;52.588;13.370;2023-08-06T13:56:02;5.32;;;3.90;;
9771;SDS011;4925;52.588;13.370;2023-08-06T13:58:28;5.03;;;4.20;;
9771;SDS011;4925;52.588;13.370;2023-08-06T14:00:54;4.20;;;3.80;;
9771;SDS011;4925;52.588;13.370;2023-08-06T14:03:21;4.97;;;4.47;;
9771;SDS011;4925;52.588;13.370;2023-08-06T14:05:47;5.13;;;4.10;;
9771;SDS011;4925;52.588;13.370;2023-08-06T14:08:13;4.50;;;4.18;;
9771;SDS011;4925;52.588;13.370;2023-08-06T14:10:39;3.55;;;3.25;;
9771;SDS011;4925;52.588;13.370;2023-08-06T14:13:04;5.40;;;4.90;;
9771;SDS011;4925;52.588;13.370;2023-08-06T14:15:30;4.50;;;4.10;;
9771;SDS011;4925;52.588;13.370;2023-08-06T14:17:55;4.20;;;3.90;;
9771;SDS011;4925;52.588;13.370;2023-08-06T14:20:21;4.65;;;4.03;;
9771;SDS011;4925;52.588;13.370;2023-08-06T14:22:48;5.55;;;3.70;;
9771;SDS011;4925;52.588;13.370;2023-08-06T14:25:13;3.65;;;3.35;;
9771;SDS011;4925;52.588;13.370;2023-08-06T14:27:39;3.40;;;3.10;;
9771;SDS011;4925;52.588;13.370;2023-08-06T14:30:06;3.38;;;3.10;;
9771;SDS011;4925;52.588;13.370;2023-08-06T14:32:32;3.90;;;3.53;;
9771;SDS011;4925;52.588;13.370;2023-08-06T14:34:58;2.83;;;2.63;;
9771;SDS011;4925;52.588;13.370;2023-08-06T14:37:24;3.33;;;3.03;;
9771;SDS011;4925;52.588;13.370;2023-08-06T14:39:50;5.57;;;3.33;;
9771;SDS011;4925;52.588;13.370;2023-08-06T14:42:16;2.67;;;2.47;;
9771;SDS011;4925;52.588;13.370;2023-08-06T14:44:42;3.05;;;2.70;;
9771;SDS011;4925;52.588;13.370;2023-08-06T14:47:08;7.50;;;2.80;;
9771;SDS011;4925;52.588;13.370;2023-08-06T14:49:34;4.28;;;2.83;;
9771;SDS011;4925;52.588;13.370;2023-08-06T14:51:59;2.53;;;2.30;;
9771;SDS011;4925;52.588;13.370;2023-08-06T14:54:26;3.15;;;2.55;;
9771;SDS011;4925;52.588;13.370;2023-08-06T14:56:52;3.50;;;3.10;;
9771;SDS011;4925;52.588;13.370;2023-08-06T14:59:18;3.45;;;3.10;;
9771;SDS011;4925;52.588;13.370;2023-08-06T15:01:44;3.83;;;3.00;;
9771;SDS011;4925;52.588;13.370;2023-08-06T15:04:09;2.88;;;2.67;;
9771;SDS011;4925;52.588;13.370;2023-08-06T15:06:35;2.50;;;2.30;;
9771;SDS011;4925;52.588;13.370;2023-08-06T15:09:01;2.55;;;2.35;;
9771;SDS011;4925;52.588;13.370;2023-08-06T15:11:26;2.47;;;2.30;;
9771;SDS011;4925;52.588;13.370;2023-08-06T15:13:52;2.60;;;2.42;;
9771;SDS011;4925;52.588;13.370;2023-08-06T15:16:18;3.88;;;3.58;;